createdAt,value
2018-06-29T00:01:27.968Z,12.33
2018-06-29T00:03:56.639Z,12.53
2018-06-29T00:06:25.173Z,12.37
2018-06-29T00:08:53.759Z,11.83
2018-06-29T00:11:22.361Z,12.80
2018-06-29T00:13:51.010Z,12.77
2018-06-29T00:16:19.611Z,13.20
2018-06-29T00:18:48.223Z,12.73
2018-06-29T00:21:16.905Z,12.57
2018-06-29T00:23:45.567Z,12.87
2018-06-29T00:26:14.177Z,11.87
2018-06-29T00:28:42.810Z,12.37
2018-06-29T00:31:11.417Z,12.47
2018-06-29T00:33:40.059Z,13.20
2018-06-29T00:36:08.686Z,12.50
2018-06-29T00:38:37.215Z,12.60
2018-06-29T00:41:05.770Z,12.90
2018-06-29T00:43:34.421Z,13.17
2018-06-29T00:46:03.003Z,12.73
2018-06-29T00:48:31.566Z,13.47
2018-06-29T00:51:00.152Z,13.37
2018-06-29T00:53:28.715Z,13.47
2018-06-29T00:55:57.268Z,13.80
2018-06-29T00:58:25.879Z,15.07
2018-06-29T01:00:54.492Z,13.40
2018-06-29T01:03:23.054Z,13.20
2018-06-29T01:05:51.660Z,13.50
2018-06-29T01:08:20.257Z,13.20
2018-06-29T01:10:48.880Z,13.57
2018-06-29T01:13:17.510Z,14.00
2018-06-29T01:15:46.137Z,13.27
2018-06-29T01:18:14.658Z,12.80
2018-06-29T01:20:43.327Z,13.30
2018-06-29T01:23:11.868Z,12.63
2018-06-29T01:25:40.116Z,12.57
2018-06-29T01:28:08.811Z,12.37
2018-06-29T01:30:37.405Z,11.87
2018-06-29T01:33:06.059Z,12.17
2018-06-29T01:35:34.694Z,13.30
2018-06-29T01:38:03.319Z,11.53
2018-06-29T01:40:31.988Z,12.53
2018-06-29T01:43:00.626Z,13.13
2018-06-29T01:45:29.391Z,12.37
2018-06-29T01:47:57.990Z,12.50
2018-06-29T01:50:26.599Z,14.00
2018-06-29T01:52:55.249Z,12.60
2018-06-29T01:55:23.859Z,12.20
2018-06-29T01:57:52.513Z,14.47
2018-06-29T02:00:21.181Z,14.20
2018-06-29T02:02:49.885Z,12.43
2018-06-29T02:05:18.534Z,13.10
2018-06-29T02:07:47.237Z,13.33
2018-06-29T02:10:15.851Z,15.27
2018-06-29T02:12:44.371Z,13.23
2018-06-29T02:15:12.949Z,13.90
2018-06-29T02:17:41.557Z,13.20
2018-06-29T02:20:10.194Z,11.77
2018-06-29T02:22:42.886Z,13.10
2018-06-29T02:25:11.501Z,12.97
2018-06-29T02:27:40.092Z,14.03
2018-06-29T02:30:08.925Z,14.47
2018-06-29T02:32:37.484Z,14.67
2018-06-29T02:35:06.184Z,14.00
2018-06-29T02:37:35.127Z,14.70
2018-06-29T02:40:03.804Z,12.60
2018-06-29T02:42:32.399Z,13.90
2018-06-29T02:45:01.095Z,12.60
2018-06-29T02:47:29.795Z,12.13
2018-06-29T02:49:59.415Z,12.93
2018-06-29T02:52:28.088Z,12.70
2018-06-29T02:54:56.688Z,12.37
2018-06-29T02:57:25.275Z,12.40
2018-06-29T02:59:53.869Z,11.00
2018-06-29T03:02:22.559Z,11.50
2018-06-29T03:04:51.096Z,13.10
2018-06-29T03:07:20.699Z,12.30
2018-06-29T03:09:49.347Z,11.90
2018-06-29T03:12:18.013Z,11.87
2018-06-29T03:14:46.647Z,10.90
2018-06-29T03:17:15.202Z,11.83
2018-06-29T03:19:43.805Z,12.80
2018-06-29T03:22:12.492Z,11.77
2018-06-29T03:24:41.047Z,12.80
2018-06-29T03:27:09.642Z,11.40
2018-06-29T03:29:37.892Z,12.97
2018-06-29T03:32:06.515Z,12.00
2018-06-29T03:34:35.119Z,11.53
2018-06-29T03:37:03.787Z,12.60
2018-06-29T03:39:32.438Z,12.03
2018-06-29T03:42:01.060Z,12.70
2018-06-29T03:44:29.634Z,11.23
2018-06-29T03:46:58.350Z,12.57
2018-06-29T03:49:27.011Z,11.87
2018-06-29T03:51:56.326Z,12.10
2018-06-29T03:54:24.942Z,11.63
2018-06-29T03:56:53.609Z,11.87
2018-06-29T03:59:22.222Z,12.13
2018-06-29T04:01:50.773Z,11.83
2018-06-29T04:04:19.391Z,11.30
2018-06-29T04:06:47.934Z,11.87
2018-06-29T04:09:16.521Z,11.30
2018-06-29T04:11:45.193Z,11.10
2018-06-29T04:14:13.730Z,11.80
2018-06-29T04:16:42.379Z,11.43
2018-06-29T04:19:10.990Z,11.70
2018-06-29T04:21:39.562Z,12.40
2018-06-29T04:24:12.023Z,13.87
2018-06-29T04:26:40.580Z,14.00
2018-06-29T04:29:09.249Z,14.53
2018-06-29T04:31:37.491Z,13.23
2018-06-29T04:34:06.347Z,12.37
2018-06-29T04:36:34.983Z,13.07
2018-06-29T04:39:03.737Z,11.83
2018-06-29T04:41:32.301Z,12.00
2018-06-29T04:44:00.938Z,11.90
2018-06-29T04:46:29.494Z,12.37
2018-06-29T04:48:59.178Z,11.60
2018-06-29T04:51:27.827Z,11.27
2018-06-29T04:53:56.426Z,12.33
2018-06-29T04:56:25.059Z,11.53
2018-06-29T04:58:53.693Z,12.60
2018-06-29T05:01:23.409Z,12.07
2018-06-29T05:03:52.320Z,11.40
2018-06-29T05:06:20.960Z,11.67
2018-06-29T05:08:49.626Z,12.67
2018-06-29T05:11:18.301Z,12.50
2018-06-29T05:13:46.930Z,12.83
2018-06-29T05:16:15.523Z,12.50
2018-06-29T05:18:44.083Z,11.03
2018-06-29T05:21:12.375Z,10.90
2018-06-29T05:23:40.992Z,11.40
2018-06-29T05:26:09.626Z,11.70
2018-06-29T05:28:38.348Z,11.53
2018-06-29T05:31:06.998Z,11.63
2018-06-29T05:33:35.629Z,10.13
2018-06-29T05:36:04.182Z,9.77
2018-06-29T05:38:32.819Z,11.30
2018-06-29T05:41:01.729Z,10.80
2018-06-29T05:43:30.348Z,10.20
2018-06-29T05:45:58.972Z,9.47
2018-06-29T05:48:27.634Z,11.30
2018-06-29T05:50:56.362Z,11.03
2018-06-29T05:53:24.948Z,10.40
2018-06-29T05:55:53.571Z,11.00
2018-06-29T05:58:22.239Z,11.10
2018-06-29T06:00:50.833Z,10.40
2018-06-29T06:03:19.500Z,10.07
2018-06-29T06:05:48.200Z,11.27
2018-06-29T06:08:16.899Z,10.63
2018-06-29T06:10:45.496Z,11.23
2018-06-29T06:13:14.245Z,10.10
2018-06-29T06:15:42.946Z,11.57
2018-06-29T06:18:11.572Z,10.57
2018-06-29T06:20:40.187Z,9.57
2018-06-29T06:23:17.341Z,11.10
2018-06-29T06:25:47.236Z,10.00
2018-06-29T06:28:16.327Z,10.10
2018-06-29T06:30:45.074Z,9.10
2018-06-29T06:33:13.733Z,10.50
2018-06-29T06:35:42.653Z,10.10
2018-06-29T06:38:11.338Z,9.57
2018-06-29T06:40:40.075Z,10.70
2018-06-29T06:43:08.951Z,9.70
2018-06-29T06:45:37.496Z,9.90
2018-06-29T06:48:06.126Z,10.57
2018-06-29T06:50:34.802Z,10.40
2018-06-29T06:53:03.415Z,10.53
2018-06-29T06:55:32.183Z,9.93
2018-06-29T06:58:00.810Z,11.40
2018-06-29T07:00:29.425Z,10.77
2018-06-29T07:02:58.119Z,10.43
2018-06-29T07:05:26.474Z,11.00
2018-06-29T07:07:55.108Z,10.60
2018-06-29T07:10:23.806Z,9.83
2018-06-29T07:12:52.466Z,9.97
2018-06-29T07:15:20.749Z,10.77
2018-06-29T07:17:49.546Z,9.40
2018-06-29T07:20:18.255Z,9.77
2018-06-29T07:22:46.875Z,11.00
2018-06-29T07:25:15.470Z,10.30
2018-06-29T07:27:44.113Z,9.90
2018-06-29T07:30:12.750Z,10.13
2018-06-29T07:32:41.683Z,9.87
2018-06-29T07:35:10.568Z,10.00
2018-06-29T07:37:40.559Z,9.47
2018-06-29T07:40:09.594Z,9.23
2018-06-29T07:42:38.174Z,9.93
2018-06-29T07:45:06.880Z,9.43
2018-06-29T07:47:35.532Z,10.27
2018-06-29T07:50:04.884Z,9.87
2018-06-29T07:52:33.498Z,10.57
2018-06-29T07:55:02.116Z,9.93
2018-06-29T07:57:30.666Z,10.30
2018-06-29T07:59:59.311Z,10.90
2018-06-29T08:02:27.938Z,10.17
2018-06-29T08:04:56.596Z,10.23
2018-06-29T08:07:33.335Z,10.20
2018-06-29T08:10:01.989Z,10.93
2018-06-29T08:12:30.691Z,10.37
2018-06-29T08:14:59.423Z,10.70
2018-06-29T08:17:27.998Z,11.60
2018-06-29T08:19:57.672Z,10.17
2018-06-29T08:22:26.361Z,10.90
2018-06-29T08:25:09.927Z,11.17
2018-06-29T08:27:38.825Z,10.23
2018-06-29T08:30:08.694Z,10.37
2018-06-29T08:32:37.900Z,10.30
2018-06-29T08:35:07.144Z,9.60
2018-06-29T08:37:36.255Z,10.27
2018-06-29T08:40:06.011Z,10.37
2018-06-29T08:42:35.021Z,9.40
2018-06-29T08:45:04.079Z,9.13
2018-06-29T08:47:32.973Z,10.00
2018-06-29T08:50:01.952Z,10.10
2018-06-29T08:52:30.857Z,9.70
2018-06-29T08:55:01.954Z,9.13
2018-06-29T08:57:30.848Z,9.20
2018-06-29T08:59:59.795Z,10.27
2018-06-29T09:02:28.733Z,9.40
2018-06-29T09:04:57.777Z,10.20
2018-06-29T09:07:26.699Z,9.50
2018-06-29T09:09:55.906Z,8.70
2018-06-29T09:12:24.449Z,9.00
2018-06-29T09:14:53.393Z,8.83
2018-06-29T09:17:22.355Z,8.70
2018-06-29T09:19:51.316Z,8.90
2018-06-29T09:22:20.175Z,8.73
2018-06-29T09:24:49.166Z,9.47
2018-06-29T09:27:18.132Z,9.10
2018-06-29T09:29:46.839Z,8.47
2018-06-29T09:32:15.459Z,8.80
2018-06-29T09:34:44.076Z,7.60
2018-06-29T09:37:12.736Z,8.20
2018-06-29T09:39:41.367Z,8.43
2018-06-29T09:42:09.994Z,8.40
2018-06-29T09:44:38.686Z,8.27
2018-06-29T09:47:10.809Z,8.00
2018-06-29T09:49:39.387Z,8.77
2018-06-29T09:52:08.060Z,7.83
2018-06-29T09:54:36.698Z,8.57
2018-06-29T09:57:12.406Z,8.70
2018-06-29T09:59:40.999Z,7.23
2018-06-29T10:02:09.683Z,7.97
2018-06-29T10:04:38.324Z,7.40
2018-06-29T10:07:07.196Z,7.63
2018-06-29T10:09:35.868Z,7.73
2018-06-29T10:12:04.549Z,8.00
2018-06-29T10:14:33.207Z,8.63
2018-06-29T10:17:01.831Z,8.00
2018-06-29T10:19:30.589Z,7.70
2018-06-29T10:21:59.253Z,8.03
2018-06-29T10:24:27.871Z,7.50
2018-06-29T10:26:56.516Z,8.03
2018-06-29T10:29:25.139Z,7.10
2018-06-29T10:31:53.741Z,8.30
2018-06-29T10:34:22.439Z,7.23
2018-06-29T10:36:51.136Z,8.63
2018-06-29T10:39:19.878Z,8.67
2018-06-29T10:41:49.573Z,9.10
2018-06-29T10:44:18.198Z,8.87
2018-06-29T10:46:46.797Z,8.40
2018-06-29T10:49:15.544Z,9.07
2018-06-29T10:51:46.269Z,8.67
2018-06-29T10:54:19.939Z,9.07
2018-06-29T10:56:48.630Z,9.40
2018-06-29T10:59:17.210Z,8.50
2018-06-29T11:01:45.828Z,8.00
2018-06-29T11:04:15.457Z,8.97
2018-06-29T11:06:46.185Z,8.10
2018-06-29T11:09:15.490Z,8.13
2018-06-29T11:11:44.574Z,8.83
2018-06-29T11:14:13.282Z,8.50
2018-06-29T11:16:41.946Z,9.37
2018-06-29T11:19:11.607Z,8.77
2018-06-29T11:21:40.165Z,10.10
2018-06-29T11:24:08.857Z,9.77
2018-06-29T11:26:38.507Z,9.47
2018-06-29T11:29:08.290Z,8.70
2018-06-29T11:31:36.999Z,9.90
2018-06-29T11:34:07.880Z,9.33
2018-06-29T11:36:36.726Z,9.70
2018-06-29T11:39:08.448Z,9.43
2018-06-29T11:41:38.144Z,9.43
2018-06-29T11:44:07.774Z,8.00
2018-06-29T11:46:38.785Z,10.20
2018-06-29T11:49:09.116Z,8.50
2018-06-29T11:51:37.996Z,9.00
2018-06-29T11:54:07.061Z,9.13
2018-06-29T11:56:36.307Z,9.67
2018-06-29T11:59:07.989Z,9.90
2018-06-29T12:01:36.575Z,8.47
2018-06-29T12:04:05.221Z,8.33
2018-06-29T12:06:33.806Z,8.63
2018-06-29T12:09:02.425Z,8.57
2018-06-29T12:11:30.982Z,8.40
2018-06-29T12:13:59.631Z,7.80
2018-06-29T12:16:28.143Z,8.60
2018-06-29T12:18:56.779Z,7.80
2018-06-29T12:21:25.534Z,8.13
2018-06-29T12:23:54.250Z,7.73
2018-06-29T12:26:22.917Z,8.53
2018-06-29T12:28:51.535Z,8.50
2018-06-29T12:31:20.142Z,7.87
2018-06-29T12:33:48.420Z,7.67
2018-06-29T12:36:16.644Z,7.80
2018-06-29T12:38:45.266Z,7.17
2018-06-29T12:41:13.953Z,8.03
2018-06-29T12:43:43.194Z,7.30
2018-06-29T12:46:11.924Z,7.80
2018-06-29T12:48:40.429Z,7.27
2018-06-29T12:51:08.748Z,7.03
2018-06-29T12:53:37.375Z,7.20
2018-06-29T12:56:05.942Z,7.37
2018-06-29T12:58:34.628Z,6.90
2018-06-29T13:01:04.273Z,6.43
2018-06-29T13:03:33.567Z,5.87
2018-06-29T13:06:02.224Z,7.10
2018-06-29T13:08:30.852Z,6.77
2018-06-29T13:10:59.445Z,7.03
2018-06-29T13:13:28.064Z,7.10
2018-06-29T13:15:56.760Z,6.57
2018-06-29T13:18:25.455Z,6.20
2018-06-29T13:20:54.744Z,6.90
2018-06-29T13:23:23.565Z,6.63
2018-06-29T13:25:52.159Z,6.80
2018-06-29T13:28:20.890Z,7.50
2018-06-29T13:30:49.484Z,6.23
2018-06-29T13:33:18.074Z,7.00
2018-06-29T13:35:46.667Z,7.20
2018-06-29T13:38:15.237Z,6.87
2018-06-29T13:40:43.823Z,6.50
2018-06-29T13:43:14.082Z,6.93
2018-06-29T13:45:42.795Z,6.47
2018-06-29T13:48:11.509Z,6.97
2018-06-29T13:50:40.174Z,6.63
2018-06-29T13:53:08.861Z,6.57
2018-06-29T13:55:37.565Z,7.00
2018-06-29T13:58:06.196Z,6.27
2018-06-29T14:00:34.869Z,6.13
2018-06-29T14:03:03.636Z,6.60
2018-06-29T14:05:33.386Z,6.63
2018-06-29T14:08:01.987Z,5.87
2018-06-29T14:10:30.749Z,6.80
2018-06-29T14:12:59.427Z,6.50
2018-06-29T14:15:28.110Z,6.53
2018-06-29T14:17:57.022Z,5.90
2018-06-29T14:20:25.650Z,6.33
2018-06-29T14:22:54.281Z,7.00
2018-06-29T14:25:22.872Z,5.73
2018-06-29T14:27:52.578Z,6.47
2018-06-29T14:30:20.940Z,6.50
2018-06-29T14:32:49.630Z,6.47
2018-06-29T14:35:17.922Z,5.73
2018-06-29T14:37:46.515Z,7.20
2018-06-29T14:40:15.188Z,6.40
2018-06-29T14:42:43.767Z,6.50
2018-06-29T14:45:12.288Z,6.13
2018-06-29T14:47:40.950Z,6.30
2018-06-29T14:50:09.595Z,7.20
2018-06-29T14:52:38.758Z,7.07
2018-06-29T14:55:07.469Z,6.87
2018-06-29T14:57:36.103Z,7.57
2018-06-29T15:00:06.554Z,7.60
2018-06-29T15:02:35.179Z,6.73
2018-06-29T15:05:03.941Z,7.03
2018-06-29T15:07:32.556Z,6.50
2018-06-29T15:10:01.283Z,6.70
2018-06-29T15:12:30.050Z,6.90
2018-06-29T15:14:58.670Z,7.07
2018-06-29T15:17:27.202Z,6.90
2018-06-29T15:19:55.879Z,7.73
2018-06-29T15:22:24.470Z,7.33
2018-06-29T15:24:54.013Z,5.43
2018-06-29T15:27:22.635Z,6.30
2018-06-29T15:29:52.423Z,6.60
2018-06-29T15:32:20.999Z,6.00
2018-06-29T15:34:49.619Z,6.10
2018-06-29T15:37:18.288Z,6.40
2018-06-29T15:39:46.934Z,7.03
2018-06-29T15:42:16.198Z,6.20
2018-06-29T15:44:44.842Z,6.70
2018-06-29T15:47:13.797Z,6.37
2018-06-29T15:49:42.871Z,7.00
2018-06-29T15:52:11.486Z,6.37
2018-06-29T15:54:40.119Z,6.73
2018-06-29T15:57:10.055Z,6.23
2018-06-29T15:59:38.680Z,6.87
2018-06-29T16:02:07.363Z,6.37
2018-06-29T16:04:36.047Z,7.00
2018-06-29T16:07:05.213Z,7.17
2018-06-29T16:09:33.919Z,7.67
2018-06-29T16:12:02.187Z,7.00
2018-06-29T16:14:30.857Z,7.10
2018-06-29T16:16:59.549Z,6.87
2018-06-29T16:19:28.167Z,6.57
2018-06-29T16:21:56.820Z,6.50
2018-06-29T16:24:25.503Z,7.40
2018-06-29T16:26:54.241Z,6.90
2018-06-29T16:29:22.902Z,6.50
2018-06-29T16:31:51.571Z,10.27
2018-06-29T16:34:20.186Z,6.53
2018-06-29T16:36:48.775Z,6.90
2018-06-29T16:39:17.488Z,6.20
2018-06-29T16:41:46.176Z,7.50
2018-06-29T16:44:15.077Z,6.90
2018-06-29T16:46:44.093Z,6.03
2018-06-29T16:49:13.047Z,7.07
2018-06-29T16:51:41.984Z,6.30
2018-06-29T16:54:10.933Z,5.97
2018-06-29T16:56:39.878Z,6.53
2018-06-29T16:59:09.440Z,6.43
2018-06-29T17:01:38.381Z,7.00
2018-06-29T17:04:07.078Z,6.93
2018-06-29T17:06:35.666Z,7.00
2018-06-29T17:09:05.994Z,7.70
2018-06-29T17:11:34.590Z,7.57
2018-06-29T17:14:03.332Z,7.27
2018-06-29T17:16:31.918Z,7.00
2018-06-29T17:19:00.672Z,7.03
2018-06-29T17:21:29.234Z,6.87
2018-06-29T17:23:58.052Z,7.10
2018-06-29T17:26:26.575Z,7.50
2018-06-29T17:28:55.286Z,7.00
2018-06-29T17:31:23.901Z,7.00
2018-06-29T17:33:52.481Z,6.97
2018-06-29T17:36:21.099Z,6.83
2018-06-29T17:38:49.723Z,8.20
2018-06-29T17:41:18.402Z,6.63
2018-06-29T17:43:47.144Z,7.00
2018-06-29T17:46:15.868Z,6.90
2018-06-29T17:48:44.533Z,7.50
2018-06-29T17:51:13.191Z,6.70
2018-06-29T17:53:41.790Z,6.60
2018-06-29T17:56:10.442Z,7.27
2018-06-29T17:58:39.119Z,6.67
2018-06-29T18:01:08.145Z,6.40
2018-06-29T18:03:36.818Z,6.90
2018-06-29T18:06:05.635Z,6.40
2018-06-29T18:08:35.283Z,6.13
2018-06-29T18:11:03.990Z,7.10
2018-06-29T18:13:32.639Z,6.30
2018-06-29T18:16:01.330Z,7.33
2018-06-29T18:18:29.904Z,6.37
2018-06-29T18:20:58.532Z,6.47
2018-06-29T18:23:28.547Z,7.60
2018-06-29T18:25:57.113Z,7.13
2018-06-29T18:28:25.783Z,7.70
2018-06-29T18:30:54.409Z,7.40
2018-06-29T18:33:22.922Z,7.20
2018-06-29T18:35:51.478Z,7.57
2018-06-29T18:38:20.144Z,8.03
2018-06-29T18:40:48.887Z,8.43
2018-06-29T18:43:17.485Z,8.63
2018-06-29T18:45:46.100Z,8.97
2018-06-29T18:48:14.766Z,8.23
2018-06-29T18:50:43.379Z,8.30
2018-06-29T18:53:12.032Z,7.53
2018-06-29T18:55:40.726Z,8.50
2018-06-29T18:58:09.462Z,7.83
2018-06-29T19:00:37.999Z,8.57
2018-06-29T19:03:06.821Z,9.00
2018-06-29T19:05:35.434Z,8.80
2018-06-29T19:08:04.066Z,8.90
2018-06-29T19:10:32.804Z,8.10
2018-06-29T19:13:01.508Z,8.90
2018-06-29T19:15:30.089Z,9.43
2018-06-29T19:17:58.814Z,9.63
2018-06-29T19:20:27.456Z,8.97
2018-06-29T19:22:56.088Z,9.47
2018-06-29T19:25:24.769Z,10.30
2018-06-29T19:27:54.426Z,10.40
2018-06-29T19:30:23.037Z,10.17
2018-06-29T19:32:51.829Z,9.50
2018-06-29T19:35:20.567Z,9.30
2018-06-29T19:37:49.255Z,9.47
2018-06-29T19:40:17.882Z,10.73
2018-06-29T19:42:46.567Z,10.23
2018-06-29T19:45:15.284Z,10.47
2018-06-29T19:47:43.920Z,10.40
2018-06-29T19:50:12.568Z,9.90
2018-06-29T19:52:41.078Z,9.90
2018-06-29T19:55:10.780Z,9.83
2018-06-29T19:57:39.404Z,10.13
2018-06-29T20:00:08.094Z,9.60
2018-06-29T20:02:36.660Z,9.67
2018-06-29T20:05:05.572Z,10.33
2018-06-29T20:07:34.223Z,9.50
2018-06-29T20:10:02.894Z,9.80
2018-06-29T20:12:31.438Z,9.60
2018-06-29T20:15:00.184Z,9.73
2018-06-29T20:17:28.764Z,9.50
2018-06-29T20:19:57.422Z,9.07
2018-06-29T20:22:26.063Z,10.40
2018-06-29T20:24:55.753Z,10.77
2018-06-29T20:27:24.403Z,15.07
2018-06-29T20:29:53.020Z,9.60
2018-06-29T20:32:21.964Z,11.00
2018-06-29T20:34:51.724Z,10.00
2018-06-29T20:37:20.465Z,9.87
2018-06-29T20:39:49.084Z,10.47
2018-06-29T20:42:17.729Z,10.60
2018-06-29T20:44:46.411Z,10.63
2018-06-29T20:47:15.679Z,10.53
2018-06-29T20:49:44.407Z,10.93
2018-06-29T20:52:13.111Z,11.70
2018-06-29T20:54:41.695Z,11.33
2018-06-29T20:57:12.450Z,11.70
2018-06-29T20:59:41.080Z,10.63
2018-06-29T21:02:09.904Z,10.77
2018-06-29T21:04:38.617Z,11.73
2018-06-29T21:07:07.108Z,11.30
2018-06-29T21:09:35.800Z,11.57
2018-06-29T21:12:04.593Z,10.10
2018-06-29T21:14:33.266Z,11.00
2018-06-29T21:17:01.882Z,11.40
2018-06-29T21:19:31.282Z,10.20
2018-06-29T21:22:04.016Z,11.10
2018-06-29T21:24:32.706Z,11.60
2018-06-29T21:27:01.427Z,12.40
2018-06-29T21:29:30.466Z,12.53
2018-06-29T21:31:59.080Z,14.77
2018-06-29T21:34:27.917Z,15.80
2018-06-29T21:36:56.794Z,14.43
2018-06-29T21:39:25.627Z,13.67
2018-06-29T21:41:54.537Z,14.60
2018-06-29T21:44:22.903Z,14.40
2018-06-29T21:46:51.616Z,13.43
2018-06-29T21:49:20.432Z,13.70
2018-06-29T21:51:49.195Z,13.47
2018-06-29T21:54:21.581Z,13.43
2018-06-29T21:56:54.511Z,11.80
2018-06-29T21:59:23.221Z,11.50
2018-06-29T22:01:51.710Z,11.40
2018-06-29T22:04:20.373Z,11.97
2018-06-29T22:06:48.994Z,13.20
2018-06-29T22:09:17.632Z,13.37
2018-06-29T22:11:46.263Z,13.13
2018-06-29T22:14:14.911Z,12.50
2018-06-29T22:16:43.517Z,13.80
2018-06-29T22:19:12.890Z,11.43
2018-06-29T22:21:41.521Z,12.30
2018-06-29T22:24:10.242Z,11.97
2018-06-29T22:26:38.831Z,11.63
2018-06-29T22:29:07.486Z,11.70
2018-06-29T22:31:36.141Z,13.70
2018-06-29T22:34:04.836Z,12.97
2018-06-29T22:36:33.472Z,12.10
2018-06-29T22:39:02.072Z,14.23
2018-06-29T22:41:30.697Z,13.10
2018-06-29T22:43:59.297Z,13.10
2018-06-29T22:46:27.962Z,13.20
2018-06-29T22:48:56.628Z,13.50
2018-06-29T22:51:25.315Z,12.20
2018-06-29T22:53:53.967Z,12.83
2018-06-29T22:56:22.918Z,13.13
2018-06-29T22:58:51.529Z,12.60
2018-06-29T23:01:20.295Z,13.57
2018-06-29T23:03:53.888Z,12.20
2018-06-29T23:06:23.351Z,13.93
2018-06-29T23:08:51.977Z,12.80
2018-06-29T23:11:20.680Z,13.90
2018-06-29T23:13:49.341Z,14.63
2018-06-29T23:16:18.343Z,13.70
2018-06-29T23:18:46.976Z,13.60
2018-06-29T23:21:15.592Z,13.40
2018-06-29T23:23:44.258Z,14.20
2018-06-29T23:26:13.908Z,12.80
2018-06-29T23:28:42.476Z,14.40
2018-06-29T23:31:11.163Z,14.13
2018-06-29T23:33:39.810Z,14.07
2018-06-29T23:36:08.454Z,13.27
2018-06-29T23:38:37.190Z,14.57
2018-06-29T23:41:05.925Z,15.00
2018-06-29T23:43:34.595Z,14.20
2018-06-29T23:46:03.209Z,13.90
2018-06-29T23:48:31.838Z,15.13
2018-06-29T23:51:00.383Z,13.80
2018-06-29T23:53:28.990Z,15.00
2018-06-29T23:55:57.546Z,15.27
2018-06-29T23:58:26.192Z,15.50
